sensor_id;sensor_type;location;lat;lon;timestamp;P1;durP1;ratioP1;P2;durP2;ratioP2
43124;SDS011;49182;50.788;7.318;2023-03-03T00:00:47;11.60;;;5.80;;
43124;SDS011;49182;50.788;7.318;2023-03-03T00:03:14;10.88;;;5.13;;
43124;SDS011;49182;50.788;7.318;2023-03-03T00:05:43;12.95;;;5.93;;
43124;SDS011;49182;50.788;7.318;2023-03-03T00:08:10;13.52;;;5.80;;
43124;SDS011;49182;50.788;7.318;2023-03-03T00:10:37;14.68;;;6.60;;
43124;SDS011;49182;50.788;7.318;2023-03-03T00:13:06;14.82;;;6.43;;
43124;SDS011;49182;50.788;7.318;2023-03-03T00:15:41;16.42;;;6.00;;
43124;SDS011;49182;50.788;7.318;2023-03-03T00:18:12;13.55;;;5.88;;
43124;SDS011;49182;50.788;7.318;2023-03-03T00:20:47;11.07;;;5.38;;
43124;SDS011;49182;50.788;7.318;2023-03-03T00:23:25;12.23;;;6.15;;
43124;SDS011;49182;50.788;7.318;2023-03-03T00:25:56;16.70;;;6.32;;
43124;SDS011;49182;50.788;7.318;2023-03-03T00:28:26;12.20;;;6.05;;
43124;SDS011;49182;50.788;7.318;2023-03-03T00:30:55;13.38;;;5.40;;
43124;SDS011;49182;50.788;7.318;2023-03-03T00:33:28;12.40;;;6.20;;
43124;SDS011;49182;50.788;7.318;2023-03-03T00:35:56;15.48;;;6.53;;
43124;SDS011;49182;50.788;7.318;2023-03-03T00:38:26;13.43;;;6.30;;
43124;SDS011;49182;50.788;7.318;2023-03-03T00:40:53;12.70;;;6.40;;
43124;SDS011;49182;50.788;7.318;2023-03-03T00:43:20;13.93;;;6.25;;
43124;SDS011;49182;50.788;7.318;2023-03-03T00:45:49;14.43;;;6.22;;
43124;SDS011;49182;50.788;7.318;2023-03-03T00:48:21;14.23;;;6.45;;
43124;SDS011;49182;50.788;7.318;2023-03-03T00:50:50;13.70;;;6.32;;
43124;SDS011;49182;50.788;7.318;2023-03-03T00:53:18;13.52;;;6.50;;
43124;SDS011;49182;50.788;7.318;2023-03-03T00:55:46;14.07;;;6.07;;
43124;SDS011;49182;50.788;7.318;2023-03-03T00:58:15;12.93;;;6.05;;
43124;SDS011;49182;50.788;7.318;2023-03-03T01:00:45;15.38;;;6.25;;
43124;SDS011;49182;50.788;7.318;2023-03-03T01:03:16;12.27;;;5.63;;
43124;SDS011;49182;50.788;7.318;2023-03-03T01:05:43;14.07;;;5.80;;
43124;SDS011;49182;50.788;7.318;2023-03-03T01:08:11;12.27;;;5.55;;
43124;SDS011;49182;50.788;7.318;2023-03-03T01:10:41;14.55;;;5.72;;
43124;SDS011;49182;50.788;7.318;2023-03-03T01:15:37;12.82;;;6.30;;
43124;SDS011;49182;50.788;7.318;2023-03-03T01:18:05;17.20;;;6.68;;
43124;SDS011;49182;50.788;7.318;2023-03-03T01:20:33;15.43;;;7.25;;
43124;SDS011;49182;50.788;7.318;2023-03-03T01:23:00;15.77;;;6.00;;
43124;SDS011;49182;50.788;7.318;2023-03-03T01:25:27;12.50;;;6.60;;
43124;SDS011;49182;50.788;7.318;2023-03-03T01:27:53;14.30;;;6.30;;
43124;SDS011;49182;50.788;7.318;2023-03-03T01:30:20;11.82;;;6.13;;
43124;SDS011;49182;50.788;7.318;2023-03-03T01:32:47;15.23;;;6.10;;
43124;SDS011;49182;50.788;7.318;2023-03-03T01:35:13;13.90;;;6.43;;
43124;SDS011;49182;50.788;7.318;2023-03-03T01:37:41;17.73;;;6.97;;
43124;SDS011;49182;50.788;7.318;2023-03-03T01:40:11;15.88;;;6.50;;
43124;SDS011;49182;50.788;7.318;2023-03-03T01:42:40;14.57;;;5.78;;
43124;SDS011;49182;50.788;7.318;2023-03-03T01:45:09;13.63;;;6.15;;
43124;SDS011;49182;50.788;7.318;2023-03-03T01:47:42;15.60;;;6.75;;
43124;SDS011;49182;50.788;7.318;2023-03-03T01:50:13;18.43;;;8.37;;
43124;SDS011;49182;50.788;7.318;2023-03-03T01:52:42;17.00;;;7.95;;
43124;SDS011;49182;50.788;7.318;2023-03-03T01:55:12;16.63;;;7.20;;
43124;SDS011;49182;50.788;7.318;2023-03-03T01:57:45;19.33;;;8.27;;
43124;SDS011;49182;50.788;7.318;2023-03-03T02:00:17;16.23;;;7.97;;
43124;SDS011;49182;50.788;7.318;2023-03-03T02:02:45;16.65;;;7.13;;
43124;SDS011;49182;50.788;7.318;2023-03-03T02:05:12;21.30;;;8.63;;
43124;SDS011;49182;50.788;7.318;2023-03-03T02:07:39;16.92;;;7.60;;
43124;SDS011;49182;50.788;7.318;2023-03-03T02:10:09;17.98;;;7.90;;
43124;SDS011;49182;50.788;7.318;2023-03-03T02:12:39;27.33;;;11.35;;
43124;SDS011;49182;50.788;7.318;2023-03-03T02:15:14;18.02;;;8.57;;
43124;SDS011;49182;50.788;7.318;2023-03-03T02:17:43;29.67;;;10.27;;
43124;SDS011;49182;50.788;7.318;2023-03-03T02:20:11;18.38;;;8.43;;
43124;SDS011;49182;50.788;7.318;2023-03-03T02:22:46;19.23;;;7.93;;
43124;SDS011;49182;50.788;7.318;2023-03-03T02:25:21;20.00;;;9.27;;
43124;SDS011;49182;50.788;7.318;2023-03-03T02:27:56;19.58;;;7.22;;
43124;SDS011;49182;50.788;7.318;2023-03-03T02:30:23;20.05;;;7.93;;
43124;SDS011;49182;50.788;7.318;2023-03-03T02:32:50;19.73;;;7.50;;
43124;SDS011;49182;50.788;7.318;2023-03-03T02:35:24;17.75;;;7.75;;
43124;SDS011;49182;50.788;7.318;2023-03-03T02:37:53;20.38;;;8.07;;
43124;SDS011;49182;50.788;7.318;2023-03-03T02:40:24;15.43;;;7.72;;
43124;SDS011;49182;50.788;7.318;2023-03-03T02:45:26;16.23;;;6.55;;
43124;SDS011;49182;50.788;7.318;2023-03-03T02:47:53;18.55;;;7.43;;
43124;SDS011;49182;50.788;7.318;2023-03-03T02:50:20;16.40;;;8.05;;
43124;SDS011;49182;50.788;7.318;2023-03-03T02:52:46;14.73;;;7.10;;
43124;SDS011;49182;50.788;7.318;2023-03-03T02:55:13;17.45;;;7.38;;
43124;SDS011;49182;50.788;7.318;2023-03-03T02:57:40;16.45;;;7.10;;
43124;SDS011;49182;50.788;7.318;2023-03-03T03:00:08;14.95;;;7.53;;
43124;SDS011;49182;50.788;7.318;2023-03-03T03:02:36;17.48;;;7.68;;
43124;SDS011;49182;50.788;7.318;2023-03-03T03:05:03;14.82;;;6.80;;
43124;SDS011;49182;50.788;7.318;2023-03-03T03:07:30;15.77;;;6.78;;
43124;SDS011;49182;50.788;7.318;2023-03-03T03:09:57;15.13;;;6.47;;
43124;SDS011;49182;50.788;7.318;2023-03-03T03:12:25;16.02;;;7.13;;
43124;SDS011;49182;50.788;7.318;2023-03-03T03:14:54;16.67;;;8.05;;
43124;SDS011;49182;50.788;7.318;2023-03-03T03:17:22;17.00;;;7.25;;
43124;SDS011;49182;50.788;7.318;2023-03-03T03:19:52;22.05;;;7.75;;
43124;SDS011;49182;50.788;7.318;2023-03-03T03:22:18;13.25;;;6.53;;
43124;SDS011;49182;50.788;7.318;2023-03-03T03:24:45;15.30;;;7.45;;
43124;SDS011;49182;50.788;7.318;2023-03-03T03:27:14;16.38;;;6.75;;
43124;SDS011;49182;50.788;7.318;2023-03-03T03:29:41;16.20;;;6.75;;
43124;SDS011;49182;50.788;7.318;2023-03-03T03:32:08;13.57;;;6.63;;
43124;SDS011;49182;50.788;7.318;2023-03-03T03:34:36;16.73;;;7.15;;
43124;SDS011;49182;50.788;7.318;2023-03-03T03:37:03;18.13;;;6.90;;
43124;SDS011;49182;50.788;7.318;2023-03-03T03:39:31;17.23;;;7.53;;
43124;SDS011;49182;50.788;7.318;2023-03-03T03:41:57;16.98;;;7.60;;
43124;SDS011;49182;50.788;7.318;2023-03-03T03:44:24;19.80;;;8.45;;
43124;SDS011;49182;50.788;7.318;2023-03-03T03:46:52;18.83;;;8.80;;
43124;SDS011;49182;50.788;7.318;2023-03-03T03:49:19;17.85;;;8.02;;
43124;SDS011;49182;50.788;7.318;2023-03-03T03:51:49;17.20;;;7.28;;
43124;SDS011;49182;50.788;7.318;2023-03-03T03:54:19;15.65;;;7.13;;
43124;SDS011;49182;50.788;7.318;2023-03-03T03:56:46;15.30;;;7.18;;
43124;SDS011;49182;50.788;7.318;2023-03-03T03:59:13;18.05;;;8.23;;
43124;SDS011;49182;50.788;7.318;2023-03-03T04:01:39;17.92;;;7.45;;
43124;SDS011;49182;50.788;7.318;2023-03-03T04:04:06;15.35;;;7.28;;
43124;SDS011;49182;50.788;7.318;2023-03-03T04:06:33;17.13;;;7.38;;
43124;SDS011;49182;50.788;7.318;2023-03-03T04:09:03;19.15;;;8.27;;
43124;SDS011;49182;50.788;7.318;2023-03-03T04:11:30;17.80;;;8.15;;
43124;SDS011;49182;50.788;7.318;2023-03-03T04:13:57;20.73;;;8.13;;
43124;SDS011;49182;50.788;7.318;2023-03-03T04:16:25;21.55;;;8.80;;
43124;SDS011;49182;50.788;7.318;2023-03-03T04:18:51;18.35;;;8.15;;
43124;SDS011;49182;50.788;7.318;2023-03-03T04:21:19;21.77;;;7.80;;
43124;SDS011;49182;50.788;7.318;2023-03-03T04:23:48;19.27;;;8.60;;
43124;SDS011;49182;50.788;7.318;2023-03-03T04:26:17;16.08;;;7.57;;
43124;SDS011;49182;50.788;7.318;2023-03-03T04:28:45;19.20;;;7.28;;
43124;SDS011;49182;50.788;7.318;2023-03-03T04:31:12;15.50;;;7.30;;
43124;SDS011;49182;50.788;7.318;2023-03-03T04:33:39;17.55;;;7.30;;
43124;SDS011;49182;50.788;7.318;2023-03-03T04:36:07;17.70;;;7.65;;
43124;SDS011;49182;50.788;7.318;2023-03-03T04:38:33;19.35;;;7.85;;
43124;SDS011;49182;50.788;7.318;2023-03-03T04:41:00;19.92;;;7.75;;
43124;SDS011;49182;50.788;7.318;2023-03-03T04:43:33;17.17;;;7.53;;
43124;SDS011;49182;50.788;7.318;2023-03-03T04:46:00;16.38;;;7.80;;
43124;SDS011;49182;50.788;7.318;2023-03-03T04:48:27;19.90;;;8.35;;
43124;SDS011;49182;50.788;7.318;2023-03-03T04:50:54;18.33;;;8.45;;
43124;SDS011;49182;50.788;7.318;2023-03-03T04:53:21;16.40;;;8.30;;
43124;SDS011;49182;50.788;7.318;2023-03-03T04:55:48;18.48;;;8.13;;
43124;SDS011;49182;50.788;7.318;2023-03-03T04:58:15;18.38;;;7.90;;
43124;SDS011;49182;50.788;7.318;2023-03-03T05:00:43;15.68;;;7.97;;
43124;SDS011;49182;50.788;7.318;2023-03-03T05:03:10;19.20;;;7.88;;
43124;SDS011;49182;50.788;7.318;2023-03-03T05:05:39;22.60;;;8.10;;
43124;SDS011;49182;50.788;7.318;2023-03-03T05:08:06;20.38;;;8.32;;
43124;SDS011;49182;50.788;7.318;2023-03-03T05:10:33;24.27;;;9.95;;
43124;SDS011;49182;50.788;7.318;2023-03-03T05:13:00;21.05;;;9.30;;
43124;SDS011;49182;50.788;7.318;2023-03-03T05:15:27;19.35;;;7.85;;
43124;SDS011;49182;50.788;7.318;2023-03-03T05:17:55;18.83;;;8.27;;
43124;SDS011;49182;50.788;7.318;2023-03-03T05:20:22;16.15;;;7.80;;
43124;SDS011;49182;50.788;7.318;2023-03-03T05:22:49;40.78;;;16.17;;
43124;SDS011;49182;50.788;7.318;2023-03-03T05:25:15;24.00;;;10.68;;
43124;SDS011;49182;50.788;7.318;2023-03-03T05:27:42;20.83;;;9.80;;
43124;SDS011;49182;50.788;7.318;2023-03-03T05:30:10;23.88;;;9.95;;
43124;SDS011;49182;50.788;7.318;2023-03-03T05:32:37;25.33;;;10.40;;
43124;SDS011;49182;50.788;7.318;2023-03-03T05:35:06;19.17;;;7.90;;
43124;SDS011;49182;50.788;7.318;2023-03-03T05:37:33;23.05;;;9.82;;
43124;SDS011;49182;50.788;7.318;2023-03-03T05:39:59;30.75;;;11.65;;
43124;SDS011;49182;50.788;7.318;2023-03-03T05:42:26;23.13;;;9.50;;
43124;SDS011;49182;50.788;7.318;2023-03-03T05:44:53;27.20;;;11.43;;
43124;SDS011;49182;50.788;7.318;2023-03-03T05:47:20;30.13;;;13.40;;
43124;SDS011;49182;50.788;7.318;2023-03-03T05:49:46;27.23;;;11.80;;
43124;SDS011;49182;50.788;7.318;2023-03-03T05:52:14;31.90;;;12.73;;
43124;SDS011;49182;50.788;7.318;2023-03-03T05:54:41;26.77;;;11.70;;
43124;SDS011;49182;50.788;7.318;2023-03-03T05:57:07;37.20;;;13.80;;
43124;SDS011;49182;50.788;7.318;2023-03-03T05:59:34;29.92;;;12.27;;
43124;SDS011;49182;50.788;7.318;2023-03-03T06:02:01;24.77;;;11.15;;
43124;SDS011;49182;50.788;7.318;2023-03-03T06:04:27;23.98;;;10.95;;
43124;SDS011;49182;50.788;7.318;2023-03-03T06:06:54;22.52;;;9.90;;
43124;SDS011;49182;50.788;7.318;2023-03-03T06:09:22;19.95;;;8.27;;
43124;SDS011;49182;50.788;7.318;2023-03-03T06:11:48;22.75;;;9.82;;
43124;SDS011;49182;50.788;7.318;2023-03-03T06:14:15;21.25;;;9.93;;
43124;SDS011;49182;50.788;7.318;2023-03-03T06:16:42;28.92;;;10.95;;
43124;SDS011;49182;50.788;7.318;2023-03-03T06:19:08;25.52;;;10.02;;
43124;SDS011;49182;50.788;7.318;2023-03-03T06:21:35;34.05;;;11.98;;
43124;SDS011;49182;50.788;7.318;2023-03-03T06:24:01;25.73;;;11.98;;
43124;SDS011;49182;50.788;7.318;2023-03-03T06:26:30;27.52;;;10.55;;
43124;SDS011;49182;50.788;7.318;2023-03-03T06:28:57;20.88;;;10.00;;
43124;SDS011;49182;50.788;7.318;2023-03-03T06:31:24;34.90;;;14.48;;
43124;SDS011;49182;50.788;7.318;2023-03-03T06:33:52;30.15;;;11.43;;
43124;SDS011;49182;50.788;7.318;2023-03-03T06:36:19;24.70;;;10.02;;
43124;SDS011;49182;50.788;7.318;2023-03-03T06:38:45;25.88;;;10.30;;
43124;SDS011;49182;50.788;7.318;2023-03-03T06:41:12;22.77;;;10.50;;
43124;SDS011;49182;50.788;7.318;2023-03-03T06:43:41;26.67;;;11.70;;
43124;SDS011;49182;50.788;7.318;2023-03-03T06:46:08;31.45;;;11.18;;
43124;SDS011;49182;50.788;7.318;2023-03-03T06:48:34;26.88;;;11.38;;
43124;SDS011;49182;50.788;7.318;2023-03-03T06:51:02;22.92;;;9.93;;
43124;SDS011;49182;50.788;7.318;2023-03-03T06:53:40;21.63;;;9.52;;
43124;SDS011;49182;50.788;7.318;2023-03-03T06:56:07;22.42;;;10.23;;
43124;SDS011;49182;50.788;7.318;2023-03-03T06:58:34;20.95;;;10.13;;
43124;SDS011;49182;50.788;7.318;2023-03-03T07:01:04;20.13;;;9.40;;
43124;SDS011;49182;50.788;7.318;2023-03-03T07:03:39;23.50;;;10.85;;
43124;SDS011;49182;50.788;7.318;2023-03-03T07:06:07;28.10;;;13.10;;
43124;SDS011;49182;50.788;7.318;2023-03-03T07:11:45;24.42;;;10.35;;
43124;SDS011;49182;50.788;7.318;2023-03-03T07:16:57;22.17;;;11.70;;
43124;SDS011;49182;50.788;7.318;2023-03-03T07:19:28;28.23;;;12.25;;
43124;SDS011;49182;50.788;7.318;2023-03-03T07:21:59;23.83;;;10.70;;
43124;SDS011;49182;50.788;7.318;2023-03-03T07:24:28;25.55;;;10.57;;
43124;SDS011;49182;50.788;7.318;2023-03-03T07:26:58;22.48;;;10.85;;
43124;SDS011;49182;50.788;7.318;2023-03-03T07:29:28;26.35;;;12.27;;
43124;SDS011;49182;50.788;7.318;2023-03-03T07:31:56;29.70;;;11.60;;
43124;SDS011;49182;50.788;7.318;2023-03-03T07:34:24;27.45;;;11.93;;
43124;SDS011;49182;50.788;7.318;2023-03-03T07:36:56;28.45;;;12.65;;
43124;SDS011;49182;50.788;7.318;2023-03-03T07:39:27;25.10;;;11.93;;
43124;SDS011;49182;50.788;7.318;2023-03-03T07:42:00;25.83;;;12.70;;
43124;SDS011;49182;50.788;7.318;2023-03-03T07:44:39;25.90;;;11.30;;
43124;SDS011;49182;50.788;7.318;2023-03-03T07:47:14;28.55;;;13.25;;
43124;SDS011;49182;50.788;7.318;2023-03-03T07:49:44;26.02;;;10.38;;
43124;SDS011;49182;50.788;7.318;2023-03-03T07:52:17;25.48;;;11.68;;
43124;SDS011;49182;50.788;7.318;2023-03-03T07:54:49;23.67;;;11.10;;
43124;SDS011;49182;50.788;7.318;2023-03-03T07:57:18;25.83;;;10.98;;
43124;SDS011;49182;50.788;7.318;2023-03-03T08:02:22;23.58;;;11.18;;
43124;SDS011;49182;50.788;7.318;2023-03-03T08:05:00;25.65;;;12.73;;
43124;SDS011;49182;50.788;7.318;2023-03-03T08:07:30;28.58;;;11.73;;
43124;SDS011;49182;50.788;7.318;2023-03-03T08:09:58;26.45;;;11.00;;
43124;SDS011;49182;50.788;7.318;2023-03-03T08:12:30;28.95;;;12.50;;
43124;SDS011;49182;50.788;7.318;2023-03-03T08:15:18;27.48;;;12.05;;
43124;SDS011;49182;50.788;7.318;2023-03-03T08:17:48;29.90;;;13.82;;
43124;SDS011;49182;50.788;7.318;2023-03-03T08:23:21;31.02;;;14.77;;
43124;SDS011;49182;50.788;7.318;2023-03-03T08:25:48;28.42;;;13.95;;
43124;SDS011;49182;50.788;7.318;2023-03-03T08:28:16;35.03;;;15.85;;
43124;SDS011;49182;50.788;7.318;2023-03-03T08:30:44;33.33;;;13.90;;
43124;SDS011;49182;50.788;7.318;2023-03-03T08:33:13;29.67;;;13.65;;
43124;SDS011;49182;50.788;7.318;2023-03-03T08:35:40;34.50;;;15.00;;
43124;SDS011;49182;50.788;7.318;2023-03-03T08:38:07;33.88;;;14.40;;
43124;SDS011;49182;50.788;7.318;2023-03-03T08:40:35;28.33;;;12.82;;
43124;SDS011;49182;50.788;7.318;2023-03-03T08:43:03;30.80;;;14.02;;
43124;SDS011;49182;50.788;7.318;2023-03-03T08:45:29;37.35;;;14.70;;
43124;SDS011;49182;50.788;7.318;2023-03-03T08:47:57;33.03;;;14.20;;
43124;SDS011;49182;50.788;7.318;2023-03-03T08:50:28;32.17;;;16.67;;
43124;SDS011;49182;50.788;7.318;2023-03-03T08:52:55;41.45;;;15.45;;
43124;SDS011;49182;50.788;7.318;2023-03-03T08:55:22;37.50;;;15.55;;
43124;SDS011;49182;50.788;7.318;2023-03-03T08:57:49;34.47;;;15.13;;
43124;SDS011;49182;50.788;7.318;2023-03-03T09:00:16;36.47;;;15.93;;
43124;SDS011;49182;50.788;7.318;2023-03-03T09:02:44;32.88;;;14.85;;
43124;SDS011;49182;50.788;7.318;2023-03-03T09:05:11;33.75;;;14.18;;
43124;SDS011;49182;50.788;7.318;2023-03-03T09:07:40;30.95;;;14.10;;
43124;SDS011;49182;50.788;7.318;2023-03-03T09:10:07;31.17;;;13.38;;
43124;SDS011;49182;50.788;7.318;2023-03-03T09:12:36;32.55;;;14.25;;
43124;SDS011;49182;50.788;7.318;2023-03-03T09:15:12;32.67;;;14.88;;
43124;SDS011;49182;50.788;7.318;2023-03-03T09:17:43;34.20;;;14.82;;
43124;SDS011;49182;50.788;7.318;2023-03-03T09:20:16;32.67;;;14.40;;
43124;SDS011;49182;50.788;7.318;2023-03-03T09:22:50;30.65;;;14.07;;
43124;SDS011;49182;50.788;7.318;2023-03-03T09:25:19;32.72;;;13.60;;
43124;SDS011;49182;50.788;7.318;2023-03-03T09:27:51;30.70;;;14.18;;
43124;SDS011;49182;50.788;7.318;2023-03-03T09:30:26;30.33;;;13.23;;
43124;SDS011;49182;50.788;7.318;2023-03-03T09:32:59;30.63;;;12.65;;
43124;SDS011;49182;50.788;7.318;2023-03-03T09:35:33;27.40;;;13.25;;
43124;SDS011;49182;50.788;7.318;2023-03-03T09:38:10;29.33;;;13.05;;
43124;SDS011;49182;50.788;7.318;2023-03-03T09:40:50;31.80;;;13.93;;
43124;SDS011;49182;50.788;7.318;2023-03-03T09:43:39;31.83;;;13.43;;
43124;SDS011;49182;50.788;7.318;2023-03-03T09:46:15;26.48;;;11.77;;
43124;SDS011;49182;50.788;7.318;2023-03-03T09:48:56;28.85;;;11.68;;
43124;SDS011;49182;50.788;7.318;2023-03-03T09:51:34;29.58;;;11.98;;
43124;SDS011;49182;50.788;7.318;2023-03-03T09:54:14;27.17;;;11.68;;
43124;SDS011;49182;50.788;7.318;2023-03-03T09:56:52;26.58;;;11.90;;
43124;SDS011;49182;50.788;7.318;2023-03-03T09:59:27;26.70;;;12.82;;
43124;SDS011;49182;50.788;7.318;2023-03-03T10:02:11;25.35;;;12.02;;
43124;SDS011;49182;50.788;7.318;2023-03-03T10:05:03;24.83;;;11.20;;
43124;SDS011;49182;50.788;7.318;2023-03-03T10:07:42;27.95;;;12.90;;
43124;SDS011;49182;50.788;7.318;2023-03-03T10:10:26;25.85;;;12.73;;
43124;SDS011;49182;50.788;7.318;2023-03-03T10:13:08;26.73;;;10.98;;
43124;SDS011;49182;50.788;7.318;2023-03-03T10:15:42;25.48;;;10.68;;
43124;SDS011;49182;50.788;7.318;2023-03-03T10:18:19;26.65;;;11.38;;
43124;SDS011;49182;50.788;7.318;2023-03-03T10:21:00;25.70;;;11.50;;
43124;SDS011;49182;50.788;7.318;2023-03-03T10:23:39;26.30;;;11.57;;
43124;SDS011;49182;50.788;7.318;2023-03-03T10:26:41;24.55;;;11.05;;
43124;SDS011;49182;50.788;7.318;2023-03-03T10:29:39;23.33;;;10.52;;
43124;SDS011;49182;50.788;7.318;2023-03-03T10:32:33;25.80;;;10.48;;
43124;SDS011;49182;50.788;7.318;2023-03-03T10:35:17;25.25;;;10.50;;
43124;SDS011;49182;50.788;7.318;2023-03-03T10:38:05;23.23;;;10.07;;
43124;SDS011;49182;50.788;7.318;2023-03-03T10:40:44;27.25;;;11.70;;
43124;SDS011;49182;50.788;7.318;2023-03-03T10:43:21;23.38;;;9.90;;
43124;SDS011;49182;50.788;7.318;2023-03-03T10:46:01;22.13;;;9.32;;
43124;SDS011;49182;50.788;7.318;2023-03-03T10:48:54;26.90;;;12.57;;
43124;SDS011;49182;50.788;7.318;2023-03-03T10:51:30;21.67;;;9.30;;
43124;SDS011;49182;50.788;7.318;2023-03-03T10:54:07;24.23;;;10.18;;
43124;SDS011;49182;50.788;7.318;2023-03-03T10:56:44;21.10;;;10.05;;
43124;SDS011;49182;50.788;7.318;2023-03-03T10:59:28;23.67;;;10.77;;
43124;SDS011;49182;50.788;7.318;2023-03-03T11:02:06;22.70;;;11.13;;
43124;SDS011;49182;50.788;7.318;2023-03-03T11:05:01;21.75;;;9.88;;
43124;SDS011;49182;50.788;7.318;2023-03-03T11:07:45;21.92;;;9.75;;
43124;SDS011;49182;50.788;7.318;2023-03-03T11:10:17;21.58;;;9.90;;
43124;SDS011;49182;50.788;7.318;2023-03-03T11:12:52;23.05;;;10.93;;
43124;SDS011;49182;50.788;7.318;2023-03-03T11:15:29;24.48;;;11.05;;
43124;SDS011;49182;50.788;7.318;2023-03-03T11:18:09;23.83;;;10.35;;
43124;SDS011;49182;50.788;7.318;2023-03-03T11:20:40;23.08;;;10.57;;
43124;SDS011;49182;50.788;7.318;2023-03-03T11:23:18;19.20;;;9.40;;
43124;SDS011;49182;50.788;7.318;2023-03-03T11:26:05;22.45;;;9.45;;
43124;SDS011;49182;50.788;7.318;2023-03-03T11:28:40;19.83;;;8.82;;
43124;SDS011;49182;50.788;7.318;2023-03-03T11:31:17;22.00;;;9.60;;
43124;SDS011;49182;50.788;7.318;2023-03-03T11:33:55;19.17;;;8.52;;
43124;SDS011;49182;50.788;7.318;2023-03-03T11:36:27;21.67;;;9.73;;
43124;SDS011;49182;50.788;7.318;2023-03-03T11:39:01;20.08;;;8.93;;
43124;SDS011;49182;50.788;7.318;2023-03-03T11:41:29;22.33;;;9.15;;
43124;SDS011;49182;50.788;7.318;2023-03-03T11:44:05;20.70;;;9.77;;
43124;SDS011;49182;50.788;7.318;2023-03-03T11:46:43;19.38;;;9.50;;
43124;SDS011;49182;50.788;7.318;2023-03-03T11:49:16;20.00;;;9.07;;
43124;SDS011;49182;50.788;7.318;2023-03-03T11:51:50;18.88;;;9.60;;
43124;SDS011;49182;50.788;7.318;2023-03-03T11:54:27;22.58;;;10.13;;
43124;SDS011;49182;50.788;7.318;2023-03-03T11:57:04;22.70;;;9.90;;
43124;SDS011;49182;50.788;7.318;2023-03-03T11:59:42;20.60;;;10.27;;
43124;SDS011;49182;50.788;7.318;2023-03-03T12:05:11;23.65;;;11.18;;
43124;SDS011;49182;50.788;7.318;2023-03-03T12:07:46;23.08;;;10.20;;
43124;SDS011;49182;50.788;7.318;2023-03-03T12:10:22;24.25;;;11.00;;
43124;SDS011;49182;50.788;7.318;2023-03-03T12:13:00;28.05;;;13.95;;
43124;SDS011;49182;50.788;7.318;2023-03-03T12:15:32;21.77;;;10.73;;
43124;SDS011;49182;50.788;7.318;2023-03-03T12:18:11;22.77;;;10.05;;
43124;SDS011;49182;50.788;7.318;2023-03-03T12:20:55;22.42;;;10.82;;
43124;SDS011;49182;50.788;7.318;2023-03-03T12:23:41;23.17;;;10.93;;
43124;SDS011;49182;50.788;7.318;2023-03-03T12:26:24;21.08;;;9.85;;
43124;SDS011;49182;50.788;7.318;2023-03-03T12:28:57;22.35;;;10.63;;
43124;SDS011;49182;50.788;7.318;2023-03-03T12:31:34;24.13;;;9.77;;
43124;SDS011;49182;50.788;7.318;2023-03-03T12:34:13;20.92;;;10.10;;
43124;SDS011;49182;50.788;7.318;2023-03-03T12:36:57;21.33;;;9.88;;
43124;SDS011;49182;50.788;7.318;2023-03-03T12:39:42;22.35;;;9.82;;
43124;SDS011;49182;50.788;7.318;2023-03-03T12:42:19;23.13;;;10.45;;
43124;SDS011;49182;50.788;7.318;2023-03-03T12:44:53;19.90;;;9.95;;
43124;SDS011;49182;50.788;7.318;2023-03-03T12:47:26;21.20;;;10.75;;
43124;SDS011;49182;50.788;7.318;2023-03-03T12:50:04;23.58;;;10.15;;
43124;SDS011;49182;50.788;7.318;2023-03-03T12:52:45;19.77;;;9.02;;
43124;SDS011;49182;50.788;7.318;2023-03-03T12:55:23;21.92;;;9.52;;
43124;SDS011;49182;50.788;7.318;2023-03-03T12:58:00;21.48;;;9.55;;
43124;SDS011;49182;50.788;7.318;2023-03-03T13:00:37;20.42;;;9.18;;
43124;SDS011;49182;50.788;7.318;2023-03-03T13:03:16;20.88;;;9.45;;
43124;SDS011;49182;50.788;7.318;2023-03-03T13:05:59;22.38;;;10.25;;
43124;SDS011;49182;50.788;7.318;2023-03-03T13:08:39;22.23;;;9.68;;
43124;SDS011;49182;50.788;7.318;2023-03-03T13:11:24;19.17;;;9.57;;
43124;SDS011;49182;50.788;7.318;2023-03-03T13:14:03;19.42;;;9.50;;
43124;SDS011;49182;50.788;7.318;2023-03-03T13:16:41;22.42;;;9.95;;
43124;SDS011;49182;50.788;7.318;2023-03-03T13:19:14;23.05;;;9.73;;
43124;SDS011;49182;50.788;7.318;2023-03-03T13:21:49;20.10;;;9.27;;
43124;SDS011;49182;50.788;7.318;2023-03-03T13:24:22;20.70;;;9.40;;
43124;SDS011;49182;50.788;7.318;2023-03-03T13:26:54;21.35;;;10.70;;
43124;SDS011;49182;50.788;7.318;2023-03-03T13:29:25;22.25;;;10.48;;
43124;SDS011;49182;50.788;7.318;2023-03-03T13:31:55;19.67;;;9.43;;
43124;SDS011;49182;50.788;7.318;2023-03-03T13:34:36;21.83;;;10.05;;
43124;SDS011;49182;50.788;7.318;2023-03-03T13:37:12;22.85;;;10.15;;
43124;SDS011;49182;50.788;7.318;2023-03-03T13:39:47;24.30;;;11.00;;
43124;SDS011;49182;50.788;7.318;2023-03-03T13:42:22;22.65;;;10.75;;
43124;SDS011;49182;50.788;7.318;2023-03-03T13:44:51;22.58;;;11.90;;
43124;SDS011;49182;50.788;7.318;2023-03-03T13:47:21;25.08;;;12.50;;
43124;SDS011;49182;50.788;7.318;2023-03-03T13:52:52;24.15;;;11.82;;
43124;SDS011;49182;50.788;7.318;2023-03-03T13:55:31;30.73;;;14.43;;
43124;SDS011;49182;50.788;7.318;2023-03-03T13:58:05;33.08;;;14.80;;
43124;SDS011;49182;50.788;7.318;2023-03-03T14:00:45;32.03;;;14.40;;
43124;SDS011;49182;50.788;7.318;2023-03-03T14:03:24;40.45;;;17.63;;
43124;SDS011;49182;50.788;7.318;2023-03-03T14:06:01;36.55;;;17.45;;
43124;SDS011;49182;50.788;7.318;2023-03-03T14:08:39;33.92;;;16.23;;
43124;SDS011;49182;50.788;7.318;2023-03-03T14:11:15;32.58;;;16.58;;
43124;SDS011;49182;50.788;7.318;2023-03-03T14:13:51;30.85;;;15.52;;
43124;SDS011;49182;50.788;7.318;2023-03-03T14:16:38;32.35;;;14.95;;
43124;SDS011;49182;50.788;7.318;2023-03-03T14:19:14;29.58;;;13.55;;
43124;SDS011;49182;50.788;7.318;2023-03-03T14:21:45;30.83;;;13.18;;
43124;SDS011;49182;50.788;7.318;2023-03-03T14:24:19;29.88;;;14.20;;
43124;SDS011;49182;50.788;7.318;2023-03-03T14:26:48;30.25;;;14.05;;
43124;SDS011;49182;50.788;7.318;2023-03-03T14:29:20;32.35;;;14.45;;
43124;SDS011;49182;50.788;7.318;2023-03-03T14:31:55;27.88;;;13.02;;
43124;SDS011;49182;50.788;7.318;2023-03-03T14:34:29;30.17;;;13.38;;
43124;SDS011;49182;50.788;7.318;2023-03-03T14:37:18;26.55;;;11.65;;
43124;SDS011;49182;50.788;7.318;2023-03-03T14:39:50;26.08;;;11.75;;
43124;SDS011;49182;50.788;7.318;2023-03-03T14:42:30;28.15;;;11.98;;
43124;SDS011;49182;50.788;7.318;2023-03-03T14:44:58;24.88;;;12.18;;
43124;SDS011;49182;50.788;7.318;2023-03-03T14:47:27;24.27;;;11.70;;
43124;SDS011;49182;50.788;7.318;2023-03-03T14:49:55;30.45;;;12.35;;
43124;SDS011;49182;50.788;7.318;2023-03-03T14:52:24;29.20;;;14.18;;
43124;SDS011;49182;50.788;7.318;2023-03-03T14:54:53;34.63;;;14.73;;
43124;SDS011;49182;50.788;7.318;2023-03-03T14:57:22;34.50;;;15.93;;
43124;SDS011;49182;50.788;7.318;2023-03-03T15:00:05;42.90;;;17.42;;
43124;SDS011;49182;50.788;7.318;2023-03-03T15:02:57;36.67;;;15.40;;
43124;SDS011;49182;50.788;7.318;2023-03-03T15:05:28;31.25;;;15.38;;
43124;SDS011;49182;50.788;7.318;2023-03-03T15:07:56;35.03;;;14.48;;
43124;SDS011;49182;50.788;7.318;2023-03-03T15:10:34;32.40;;;14.13;;
43124;SDS011;49182;50.788;7.318;2023-03-03T15:16:00;34.92;;;14.25;;
43124;SDS011;49182;50.788;7.318;2023-03-03T15:18:30;39.45;;;15.27;;
43124;SDS011;49182;50.788;7.318;2023-03-03T15:21:00;31.48;;;14.43;;